sensor_id;sensor_type;location;lat;lon;timestamp;P1;durP1;ratioP1;P2;durP2;ratioP2
25982;SDS011;13773;48.868;10.730;2023-03-23T00:01:48;4.83;;;2.33;;
25982;SDS011;13773;48.868;10.730;2023-03-23T00:04:15;3.70;;;2.30;;
25982;SDS011;13773;48.868;10.730;2023-03-23T00:06:41;4.37;;;2.70;;
25982;SDS011;13773;48.868;10.730;2023-03-23T00:09:10;4.97;;;2.20;;
25982;SDS011;13773;48.868;10.730;2023-03-23T00:11:37;4.80;;;2.63;;
25982;SDS011;13773;48.868;10.730;2023-03-23T00:14:04;3.27;;;2.40;;
25982;SDS011;13773;48.868;10.730;2023-03-23T00:16:30;2.93;;;2.43;;
25982;SDS011;13773;48.868;10.730;2023-03-23T00:19:02;3.27;;;2.10;;
25982;SDS011;13773;48.868;10.730;2023-03-23T00:21:34;9.40;;;3.13;;
25982;SDS011;13773;48.868;10.730;2023-03-23T00:26:32;5.37;;;2.50;;
25982;SDS011;13773;48.868;10.730;2023-03-23T00:29:00;4.63;;;2.57;;
25982;SDS011;13773;48.868;10.730;2023-03-23T00:31:26;3.80;;;2.40;;
25982;SDS011;13773;48.868;10.730;2023-03-23T00:34:00;5.80;;;2.43;;
25982;SDS011;13773;48.868;10.730;2023-03-23T00:36:33;5.00;;;2.40;;
25982;SDS011;13773;48.868;10.730;2023-03-23T00:39:03;5.73;;;2.43;;
25982;SDS011;13773;48.868;10.730;2023-03-23T00:41:30;3.67;;;2.33;;
25982;SDS011;13773;48.868;10.730;2023-03-23T00:43:58;4.83;;;2.10;;
25982;SDS011;13773;48.868;10.730;2023-03-23T00:46:27;3.77;;;2.53;;
25982;SDS011;13773;48.868;10.730;2023-03-23T00:48:53;3.13;;;2.23;;
25982;SDS011;13773;48.868;10.730;2023-03-23T00:51:21;3.73;;;2.30;;
25982;SDS011;13773;48.868;10.730;2023-03-23T00:53:48;4.20;;;2.50;;
25982;SDS011;13773;48.868;10.730;2023-03-23T00:56:14;2.17;;;1.93;;
25982;SDS011;13773;48.868;10.730;2023-03-23T00:58:40;5.07;;;2.27;;
25982;SDS011;13773;48.868;10.730;2023-03-23T01:01:06;2.90;;;2.23;;
25982;SDS011;13773;48.868;10.730;2023-03-23T01:03:33;2.77;;;2.10;;
25982;SDS011;13773;48.868;10.730;2023-03-23T01:06:07;4.87;;;2.07;;
25982;SDS011;13773;48.868;10.730;2023-03-23T01:08:38;2.50;;;2.00;;
25982;SDS011;13773;48.868;10.730;2023-03-23T01:11:10;3.00;;;2.17;;
25982;SDS011;13773;48.868;10.730;2023-03-23T01:13:40;2.20;;;2.00;;
25982;SDS011;13773;48.868;10.730;2023-03-23T01:16:10;3.47;;;2.00;;
25982;SDS011;13773;48.868;10.730;2023-03-23T01:18:36;2.60;;;2.00;;
25982;SDS011;13773;48.868;10.730;2023-03-23T01:21:06;1.90;;;1.80;;
25982;SDS011;13773;48.868;10.730;2023-03-23T01:23:37;2.33;;;1.77;;
25982;SDS011;13773;48.868;10.730;2023-03-23T01:26:10;2.50;;;1.90;;
25982;SDS011;13773;48.868;10.730;2023-03-23T01:28:46;2.50;;;1.83;;
25982;SDS011;13773;48.868;10.730;2023-03-23T01:31:14;1.87;;;1.63;;
25982;SDS011;13773;48.868;10.730;2023-03-23T01:33:41;2.53;;;1.70;;
25982;SDS011;13773;48.868;10.730;2023-03-23T01:36:10;2.33;;;1.33;;
25982;SDS011;13773;48.868;10.730;2023-03-23T01:38:39;3.10;;;1.60;;
25982;SDS011;13773;48.868;10.730;2023-03-23T01:41:06;2.00;;;1.80;;
25982;SDS011;13773;48.868;10.730;2023-03-23T01:43:32;2.97;;;1.83;;
25982;SDS011;13773;48.868;10.730;2023-03-23T01:45:58;3.30;;;1.80;;
25982;SDS011;13773;48.868;10.730;2023-03-23T01:48:25;3.43;;;1.60;;
25982;SDS011;13773;48.868;10.730;2023-03-23T01:51:25;3.33;;;1.77;;
25982;SDS011;13773;48.868;10.730;2023-03-23T01:53:46;2.27;;;1.70;;
25982;SDS011;13773;48.868;10.730;2023-03-23T01:56:28;2.17;;;1.70;;
25982;SDS011;13773;48.868;10.730;2023-03-23T01:59:03;3.00;;;1.93;;
25982;SDS011;13773;48.868;10.730;2023-03-23T02:01:30;1.60;;;1.37;;
25982;SDS011;13773;48.868;10.730;2023-03-23T02:03:55;1.83;;;1.60;;
25982;SDS011;13773;48.868;10.730;2023-03-23T02:06:23;2.60;;;1.30;;
25982;SDS011;13773;48.868;10.730;2023-03-23T02:08:49;2.87;;;1.80;;
25982;SDS011;13773;48.868;10.730;2023-03-23T02:11:17;2.27;;;1.70;;
25982;SDS011;13773;48.868;10.730;2023-03-23T02:13:45;2.70;;;1.57;;
25982;SDS011;13773;48.868;10.730;2023-03-23T02:18:40;3.37;;;1.53;;
25982;SDS011;13773;48.868;10.730;2023-03-23T02:21:13;2.00;;;1.80;;
25982;SDS011;13773;48.868;10.730;2023-03-23T02:24:10;2.40;;;1.60;;
25982;SDS011;13773;48.868;10.730;2023-03-23T02:29:45;2.13;;;1.33;;
25982;SDS011;13773;48.868;10.730;2023-03-23T02:32:22;6.17;;;2.07;;
25982;SDS011;13773;48.868;10.730;2023-03-23T02:35:01;2.70;;;2.20;;
25982;SDS011;13773;48.868;10.730;2023-03-23T02:37:31;4.20;;;2.50;;
25982;SDS011;13773;48.868;10.730;2023-03-23T02:40:12;4.20;;;2.37;;
25982;SDS011;13773;48.868;10.730;2023-03-23T02:42:43;3.67;;;2.33;;
25982;SDS011;13773;48.868;10.730;2023-03-23T02:45:13;4.80;;;2.60;;
25982;SDS011;13773;48.868;10.730;2023-03-23T02:47:40;3.97;;;2.27;;
25982;SDS011;13773;48.868;10.730;2023-03-23T02:50:08;3.20;;;2.40;;
25982;SDS011;13773;48.868;10.730;2023-03-23T02:52:38;5.07;;;2.70;;
25982;SDS011;13773;48.868;10.730;2023-03-23T02:55:05;3.77;;;2.63;;
25982;SDS011;13773;48.868;10.730;2023-03-23T02:57:33;5.03;;;3.07;;
25982;SDS011;13773;48.868;10.730;2023-03-23T03:00:00;3.03;;;2.67;;
25982;SDS011;13773;48.868;10.730;2023-03-23T03:02:29;5.00;;;3.20;;
25982;SDS011;13773;48.868;10.730;2023-03-23T03:10:55;4.27;;;3.10;;
25982;SDS011;13773;48.868;10.730;2023-03-23T03:16:38;4.03;;;2.97;;
25982;SDS011;13773;48.868;10.730;2023-03-23T03:21:51;5.43;;;3.90;;
25982;SDS011;13773;48.868;10.730;2023-03-23T03:24:20;5.50;;;3.43;;
25982;SDS011;13773;48.868;10.730;2023-03-23T03:26:48;5.60;;;3.83;;
25982;SDS011;13773;48.868;10.730;2023-03-23T03:29:17;6.27;;;3.67;;
25982;SDS011;13773;48.868;10.730;2023-03-23T03:31:45;5.60;;;3.67;;
25982;SDS011;13773;48.868;10.730;2023-03-23T03:34:14;5.90;;;3.97;;
25982;SDS011;13773;48.868;10.730;2023-03-23T03:36:44;4.53;;;3.80;;
25982;SDS011;13773;48.868;10.730;2023-03-23T03:39:11;5.13;;;3.87;;
25982;SDS011;13773;48.868;10.730;2023-03-23T03:41:40;4.87;;;3.90;;
25982;SDS011;13773;48.868;10.730;2023-03-23T03:44:06;4.97;;;3.60;;
25982;SDS011;13773;48.868;10.730;2023-03-23T03:46:33;5.37;;;3.53;;
25982;SDS011;13773;48.868;10.730;2023-03-23T03:49:00;5.40;;;3.70;;
25982;SDS011;13773;48.868;10.730;2023-03-23T03:51:27;6.20;;;4.00;;
25982;SDS011;13773;48.868;10.730;2023-03-23T03:53:54;4.83;;;3.90;;
25982;SDS011;13773;48.868;10.730;2023-03-23T03:56:21;5.20;;;3.73;;
25982;SDS011;13773;48.868;10.730;2023-03-23T03:58:47;4.73;;;3.40;;
25982;SDS011;13773;48.868;10.730;2023-03-23T04:01:14;4.43;;;3.50;;
25982;SDS011;13773;48.868;10.730;2023-03-23T04:03:41;5.50;;;3.50;;
25982;SDS011;13773;48.868;10.730;2023-03-23T04:06:08;3.97;;;3.43;;
25982;SDS011;13773;48.868;10.730;2023-03-23T04:08:34;4.10;;;3.17;;
25982;SDS011;13773;48.868;10.730;2023-03-23T04:11:02;3.40;;;3.07;;
25982;SDS011;13773;48.868;10.730;2023-03-23T04:13:29;4.57;;;3.63;;
25982;SDS011;13773;48.868;10.730;2023-03-23T04:15:55;5.03;;;3.20;;
25982;SDS011;13773;48.868;10.730;2023-03-23T04:18:21;4.13;;;3.13;;
25982;SDS011;13773;48.868;10.730;2023-03-23T04:20:48;4.83;;;3.37;;
25982;SDS011;13773;48.868;10.730;2023-03-23T04:23:15;6.07;;;3.43;;
25982;SDS011;13773;48.868;10.730;2023-03-23T04:25:51;3.83;;;3.43;;
25982;SDS011;13773;48.868;10.730;2023-03-23T04:28:18;3.57;;;3.23;;
25982;SDS011;13773;48.868;10.730;2023-03-23T04:30:48;4.10;;;3.40;;
25982;SDS011;13773;48.868;10.730;2023-03-23T04:33:18;4.07;;;3.50;;
25982;SDS011;13773;48.868;10.730;2023-03-23T04:35:44;5.17;;;3.20;;
25982;SDS011;13773;48.868;10.730;2023-03-23T04:38:13;4.97;;;3.37;;
25982;SDS011;13773;48.868;10.730;2023-03-23T04:40:40;6.90;;;3.43;;
25982;SDS011;13773;48.868;10.730;2023-03-23T04:43:07;4.83;;;3.53;;
25982;SDS011;13773;48.868;10.730;2023-03-23T04:45:34;6.43;;;3.47;;
25982;SDS011;13773;48.868;10.730;2023-03-23T04:48:02;8.03;;;3.60;;
25982;SDS011;13773;48.868;10.730;2023-03-23T04:50:31;7.27;;;3.90;;
25982;SDS011;13773;48.868;10.730;2023-03-23T04:53:01;6.73;;;4.53;;
25982;SDS011;13773;48.868;10.730;2023-03-23T04:55:31;6.93;;;4.40;;
25982;SDS011;13773;48.868;10.730;2023-03-23T04:58:04;10.30;;;4.47;;
25982;SDS011;13773;48.868;10.730;2023-03-23T05:00:34;6.73;;;4.77;;
25982;SDS011;13773;48.868;10.730;2023-03-23T05:03:00;6.90;;;4.83;;
25982;SDS011;13773;48.868;10.730;2023-03-23T05:05:26;6.93;;;3.97;;
25982;SDS011;13773;48.868;10.730;2023-03-23T05:07:54;6.87;;;4.57;;
25982;SDS011;13773;48.868;10.730;2023-03-23T05:10:20;8.83;;;4.43;;
25982;SDS011;13773;48.868;10.730;2023-03-23T05:12:46;9.37;;;4.60;;
25982;SDS011;13773;48.868;10.730;2023-03-23T05:15:13;7.00;;;4.50;;
25982;SDS011;13773;48.868;10.730;2023-03-23T05:17:41;5.97;;;4.10;;
25982;SDS011;13773;48.868;10.730;2023-03-23T05:20:11;4.63;;;4.00;;
25982;SDS011;13773;48.868;10.730;2023-03-23T05:22:39;4.80;;;4.13;;
25982;SDS011;13773;48.868;10.730;2023-03-23T05:25:06;7.77;;;4.57;;
25982;SDS011;13773;48.868;10.730;2023-03-23T05:27:34;4.90;;;3.70;;
25982;SDS011;13773;48.868;10.730;2023-03-23T05:30:00;6.40;;;4.00;;
25982;SDS011;13773;48.868;10.730;2023-03-23T05:32:26;6.50;;;3.77;;
25982;SDS011;13773;48.868;10.730;2023-03-23T05:34:56;5.43;;;3.80;;
25982;SDS011;13773;48.868;10.730;2023-03-23T05:37:23;4.77;;;3.50;;
25982;SDS011;13773;48.868;10.730;2023-03-23T05:39:49;6.77;;;3.93;;
25982;SDS011;13773;48.868;10.730;2023-03-23T05:42:19;5.73;;;3.73;;
25982;SDS011;13773;48.868;10.730;2023-03-23T05:44:47;5.10;;;4.00;;
25982;SDS011;13773;48.868;10.730;2023-03-23T05:47:13;6.77;;;4.00;;
25982;SDS011;13773;48.868;10.730;2023-03-23T05:49:39;4.43;;;3.93;;
25982;SDS011;13773;48.868;10.730;2023-03-23T05:52:05;6.07;;;3.83;;
25982;SDS011;13773;48.868;10.730;2023-03-23T05:54:30;8.73;;;4.50;;
25982;SDS011;13773;48.868;10.730;2023-03-23T05:56:56;7.30;;;4.00;;
25982;SDS011;13773;48.868;10.730;2023-03-23T05:59:22;8.33;;;4.23;;
25982;SDS011;13773;48.868;10.730;2023-03-23T06:01:48;7.60;;;4.60;;
25982;SDS011;13773;48.868;10.730;2023-03-23T06:04:15;4.80;;;3.47;;
25982;SDS011;13773;48.868;10.730;2023-03-23T06:06:42;9.10;;;4.00;;
25982;SDS011;13773;48.868;10.730;2023-03-23T06:09:08;7.80;;;4.30;;
25982;SDS011;13773;48.868;10.730;2023-03-23T06:11:34;10.20;;;4.03;;
25982;SDS011;13773;48.868;10.730;2023-03-23T06:14:00;6.33;;;4.10;;
25982;SDS011;13773;48.868;10.730;2023-03-23T06:16:28;10.40;;;4.57;;
25982;SDS011;13773;48.868;10.730;2023-03-23T06:18:54;9.33;;;4.10;;
25982;SDS011;13773;48.868;10.730;2023-03-23T06:21:21;8.93;;;4.13;;
25982;SDS011;13773;48.868;10.730;2023-03-23T06:23:48;8.87;;;3.80;;
25982;SDS011;13773;48.868;10.730;2023-03-23T06:26:14;8.20;;;3.80;;
25982;SDS011;13773;48.868;10.730;2023-03-23T06:28:42;9.97;;;4.10;;
25982;SDS011;13773;48.868;10.730;2023-03-23T06:31:08;14.37;;;4.10;;
25982;SDS011;13773;48.868;10.730;2023-03-23T06:33:34;9.17;;;3.77;;
25982;SDS011;13773;48.868;10.730;2023-03-23T06:36:01;6.53;;;3.73;;
25982;SDS011;13773;48.868;10.730;2023-03-23T06:38:28;5.93;;;3.90;;
25982;SDS011;13773;48.868;10.730;2023-03-23T06:40:54;11.07;;;3.83;;
25982;SDS011;13773;48.868;10.730;2023-03-23T06:43:22;7.23;;;3.70;;
25982;SDS011;13773;48.868;10.730;2023-03-23T06:45:48;13.60;;;3.97;;
25982;SDS011;13773;48.868;10.730;2023-03-23T06:48:15;8.87;;;3.37;;
25982;SDS011;13773;48.868;10.730;2023-03-23T06:50:45;9.47;;;3.80;;
25982;SDS011;13773;48.868;10.730;2023-03-23T06:53:11;5.37;;;3.10;;
25982;SDS011;13773;48.868;10.730;2023-03-23T06:55:37;9.17;;;3.30;;
25982;SDS011;13773;48.868;10.730;2023-03-23T06:58:06;9.10;;;3.87;;
25982;SDS011;13773;48.868;10.730;2023-03-23T07:00:33;5.10;;;3.30;;
25982;SDS011;13773;48.868;10.730;2023-03-23T07:02:59;9.33;;;3.63;;
25982;SDS011;13773;48.868;10.730;2023-03-23T07:05:25;5.97;;;3.20;;
25982;SDS011;13773;48.868;10.730;2023-03-23T07:07:51;7.87;;;3.27;;
25982;SDS011;13773;48.868;10.730;2023-03-23T07:10:17;12.57;;;3.30;;
25982;SDS011;13773;48.868;10.730;2023-03-23T07:12:43;6.07;;;2.90;;
25982;SDS011;13773;48.868;10.730;2023-03-23T07:15:09;6.40;;;2.90;;
25982;SDS011;13773;48.868;10.730;2023-03-23T07:17:36;5.57;;;3.30;;
25982;SDS011;13773;48.868;10.730;2023-03-23T07:20:02;5.97;;;3.33;;
25982;SDS011;13773;48.868;10.730;2023-03-23T07:22:29;5.37;;;3.17;;
25982;SDS011;13773;48.868;10.730;2023-03-23T07:24:55;3.97;;;2.80;;
25982;SDS011;13773;48.868;10.730;2023-03-23T07:27:21;7.30;;;3.57;;
25982;SDS011;13773;48.868;10.730;2023-03-23T07:29:47;4.20;;;3.03;;
25982;SDS011;13773;48.868;10.730;2023-03-23T07:32:13;5.17;;;2.93;;
25982;SDS011;13773;48.868;10.730;2023-03-23T07:34:39;3.10;;;2.80;;
25982;SDS011;13773;48.868;10.730;2023-03-23T07:37:05;4.80;;;2.77;;
25982;SDS011;13773;48.868;10.730;2023-03-23T07:39:31;4.80;;;3.07;;
25982;SDS011;13773;48.868;10.730;2023-03-23T07:41:58;4.07;;;2.87;;
25982;SDS011;13773;48.868;10.730;2023-03-23T07:44:24;4.03;;;2.80;;
25982;SDS011;13773;48.868;10.730;2023-03-23T07:46:50;7.90;;;3.03;;
25982;SDS011;13773;48.868;10.730;2023-03-23T07:49:16;5.30;;;2.97;;
25982;SDS011;13773;48.868;10.730;2023-03-23T07:51:42;3.80;;;3.30;;
25982;SDS011;13773;48.868;10.730;2023-03-23T07:54:09;4.60;;;3.07;;
25982;SDS011;13773;48.868;10.730;2023-03-23T07:56:35;3.47;;;2.90;;
25982;SDS011;13773;48.868;10.730;2023-03-23T07:59:02;3.63;;;3.00;;
25982;SDS011;13773;48.868;10.730;2023-03-23T08:01:29;6.63;;;3.23;;
25982;SDS011;13773;48.868;10.730;2023-03-23T08:03:55;5.33;;;3.57;;
25982;SDS011;13773;48.868;10.730;2023-03-23T08:06:23;6.40;;;2.83;;
25982;SDS011;13773;48.868;10.730;2023-03-23T08:08:49;4.73;;;3.13;;
25982;SDS011;13773;48.868;10.730;2023-03-23T08:11:15;4.10;;;3.10;;
25982;SDS011;13773;48.868;10.730;2023-03-23T08:13:41;4.50;;;2.87;;
25982;SDS011;13773;48.868;10.730;2023-03-23T08:16:08;4.27;;;2.93;;
25982;SDS011;13773;48.868;10.730;2023-03-23T08:18:35;4.30;;;2.60;;
25982;SDS011;13773;48.868;10.730;2023-03-23T08:21:02;3.77;;;3.10;;
25982;SDS011;13773;48.868;10.730;2023-03-23T08:23:30;6.37;;;2.70;;
25982;SDS011;13773;48.868;10.730;2023-03-23T08:25:56;3.50;;;3.10;;
25982;SDS011;13773;48.868;10.730;2023-03-23T08:28:22;5.97;;;3.10;;
25982;SDS011;13773;48.868;10.730;2023-03-23T08:30:48;3.77;;;3.33;;
25982;SDS011;13773;48.868;10.730;2023-03-23T08:33:15;4.90;;;3.33;;
25982;SDS011;13773;48.868;10.730;2023-03-23T08:35:41;6.90;;;3.90;;
25982;SDS011;13773;48.868;10.730;2023-03-23T08:38:08;3.40;;;2.77;;
25982;SDS011;13773;48.868;10.730;2023-03-23T08:40:36;3.50;;;3.20;;
25982;SDS011;13773;48.868;10.730;2023-03-23T08:43:04;5.77;;;3.40;;
25982;SDS011;13773;48.868;10.730;2023-03-23T08:45:30;6.30;;;3.63;;
25982;SDS011;13773;48.868;10.730;2023-03-23T08:47:56;5.23;;;3.50;;
25982;SDS011;13773;48.868;10.730;2023-03-23T08:50:24;4.80;;;3.43;;
25982;SDS011;13773;48.868;10.730;2023-03-23T08:52:52;4.40;;;3.27;;
25982;SDS011;13773;48.868;10.730;2023-03-23T08:55:19;6.87;;;3.70;;
25982;SDS011;13773;48.868;10.730;2023-03-23T08:57:45;7.67;;;3.50;;
25982;SDS011;13773;48.868;10.730;2023-03-23T09:00:12;6.60;;;3.40;;
25982;SDS011;13773;48.868;10.730;2023-03-23T09:02:43;5.13;;;3.47;;
25982;SDS011;13773;48.868;10.730;2023-03-23T09:05:14;4.47;;;3.30;;
25982;SDS011;13773;48.868;10.730;2023-03-23T09:07:42;6.53;;;3.53;;
25982;SDS011;13773;48.868;10.730;2023-03-23T09:10:11;3.43;;;2.83;;
25982;SDS011;13773;48.868;10.730;2023-03-23T09:12:38;5.00;;;3.33;;
25982;SDS011;13773;48.868;10.730;2023-03-23T09:15:04;4.53;;;3.30;;
25982;SDS011;13773;48.868;10.730;2023-03-23T09:17:33;6.40;;;3.83;;
25982;SDS011;13773;48.868;10.730;2023-03-23T09:20:01;5.57;;;3.17;;
25982;SDS011;13773;48.868;10.730;2023-03-23T09:22:32;4.83;;;2.97;;
25982;SDS011;13773;48.868;10.730;2023-03-23T09:24:58;4.47;;;3.27;;
25982;SDS011;13773;48.868;10.730;2023-03-23T09:27:23;5.70;;;3.20;;
25982;SDS011;13773;48.868;10.730;2023-03-23T09:29:50;5.83;;;3.60;;
25982;SDS011;13773;48.868;10.730;2023-03-23T09:32:16;5.23;;;3.33;;
25982;SDS011;13773;48.868;10.730;2023-03-23T09:34:41;3.53;;;3.20;;
25982;SDS011;13773;48.868;10.730;2023-03-23T09:37:07;6.27;;;3.50;;
25982;SDS011;13773;48.868;10.730;2023-03-23T09:39:34;7.50;;;3.80;;
25982;SDS011;13773;48.868;10.730;2023-03-23T09:50:14;6.17;;;3.47;;
25982;SDS011;13773;48.868;10.730;2023-03-23T09:55:23;6.23;;;3.10;;
25982;SDS011;13773;48.868;10.730;2023-03-23T09:58:02;4.10;;;3.23;;
25982;SDS011;13773;48.868;10.730;2023-03-23T10:00:41;3.87;;;3.33;;
25982;SDS011;13773;48.868;10.730;2023-03-23T10:03:45;3.47;;;2.90;;
25982;SDS011;13773;48.868;10.730;2023-03-23T10:06:07;4.47;;;3.27;;
25982;SDS011;13773;48.868;10.730;2023-03-23T10:08:37;4.73;;;3.20;;
25982;SDS011;13773;48.868;10.730;2023-03-23T10:11:13;4.90;;;2.90;;
25982;SDS011;13773;48.868;10.730;2023-03-23T10:13:57;5.30;;;3.23;;
25982;SDS011;13773;48.868;10.730;2023-03-23T10:16:36;4.77;;;2.93;;
25982;SDS011;13773;48.868;10.730;2023-03-23T10:21:40;4.53;;;3.00;;
25982;SDS011;13773;48.868;10.730;2023-03-23T10:24:14;3.57;;;2.83;;
25982;SDS011;13773;48.868;10.730;2023-03-23T10:29:18;5.17;;;3.00;;
25982;SDS011;13773;48.868;10.730;2023-03-23T10:32:16;5.67;;;3.07;;
25982;SDS011;13773;48.868;10.730;2023-03-23T10:34:55;3.27;;;2.63;;
25982;SDS011;13773;48.868;10.730;2023-03-23T10:37:29;4.57;;;3.70;;
25982;SDS011;13773;48.868;10.730;2023-03-23T10:40:02;5.17;;;3.17;;
25982;SDS011;13773;48.868;10.730;2023-03-23T10:42:34;4.10;;;2.90;;
25982;SDS011;13773;48.868;10.730;2023-03-23T10:45:35;4.10;;;3.30;;
25982;SDS011;13773;48.868;10.730;2023-03-23T10:50:29;7.37;;;3.17;;
25982;SDS011;13773;48.868;10.730;2023-03-23T10:52:57;3.30;;;3.00;;
25982;SDS011;13773;48.868;10.730;2023-03-23T10:55:34;5.10;;;2.73;;
25982;SDS011;13773;48.868;10.730;2023-03-23T10:58:27;5.27;;;2.70;;
25982;SDS011;13773;48.868;10.730;2023-03-23T11:00:55;3.63;;;2.57;;
25982;SDS011;13773;48.868;10.730;2023-03-23T11:03:27;6.77;;;3.00;;
25982;SDS011;13773;48.868;10.730;2023-03-23T11:06:02;3.70;;;2.80;;
25982;SDS011;13773;48.868;10.730;2023-03-23T11:08:31;4.07;;;3.10;;
25982;SDS011;13773;48.868;10.730;2023-03-23T11:11:18;4.33;;;3.23;;
25982;SDS011;13773;48.868;10.730;2023-03-23T11:13:58;4.33;;;3.30;;
25982;SDS011;13773;48.868;10.730;2023-03-23T11:16:30;4.70;;;3.10;;
25982;SDS011;13773;48.868;10.730;2023-03-23T11:18:58;3.07;;;2.20;;
25982;SDS011;13773;48.868;10.730;2023-03-23T11:21:25;1.70;;;1.60;;
25982;SDS011;13773;48.868;10.730;2023-03-23T11:23:56;5.77;;;1.90;;
25982;SDS011;13773;48.868;10.730;2023-03-23T11:26:25;2.70;;;1.90;;
25982;SDS011;13773;48.868;10.730;2023-03-23T11:31:36;2.63;;;2.30;;
25982;SDS011;13773;48.868;10.730;2023-03-23T11:34:30;2.43;;;1.80;;
25982;SDS011;13773;48.868;10.730;2023-03-23T11:37:12;1.60;;;1.40;;
25982;SDS011;13773;48.868;10.730;2023-03-23T11:42:23;1.73;;;1.30;;
25982;SDS011;13773;48.868;10.730;2023-03-23T11:44:55;2.37;;;1.20;;
25982;SDS011;13773;48.868;10.730;2023-03-23T11:47:41;1.40;;;1.30;;
25982;SDS011;13773;48.868;10.730;2023-03-23T11:50:26;1.90;;;1.53;;
25982;SDS011;13773;48.868;10.730;2023-03-23T11:53:10;2.07;;;1.70;;
25982;SDS011;13773;48.868;10.730;2023-03-23T11:58:16;2.60;;;1.77;;
25982;SDS011;13773;48.868;10.730;2023-03-23T12:01:06;2.23;;;1.30;;
25982;SDS011;13773;48.868;10.730;2023-03-23T12:06:20;1.77;;;1.63;;
25982;SDS011;13773;48.868;10.730;2023-03-23T12:16:58;1.90;;;1.73;;
25982;SDS011;13773;48.868;10.730;2023-03-23T12:22:38;1.87;;;1.53;;
25982;SDS011;13773;48.868;10.730;2023-03-23T12:27:54;2.00;;;1.50;;
25982;SDS011;13773;48.868;10.730;2023-03-23T12:30:38;2.90;;;1.70;;
25982;SDS011;13773;48.868;10.730;2023-03-23T12:44:06;1.60;;;1.50;;
25982;SDS011;13773;48.868;10.730;2023-03-23T12:46:45;1.53;;;1.43;;
25982;SDS011;13773;48.868;10.730;2023-03-23T12:49:33;1.70;;;1.60;;
25982;SDS011;13773;48.868;10.730;2023-03-23T12:57:57;1.67;;;1.53;;
25982;SDS011;13773;48.868;10.730;2023-03-23T13:05:43;1.80;;;1.70;;
25982;SDS011;13773;48.868;10.730;2023-03-23T13:08:21;2.30;;;1.70;;
25982;SDS011;13773;48.868;10.730;2023-03-23T13:11:10;3.17;;;1.60;;
25982;SDS011;13773;48.868;10.730;2023-03-23T13:13:49;2.47;;;1.70;;
25982;SDS011;13773;48.868;10.730;2023-03-23T13:21:44;2.60;;;1.70;;
25982;SDS011;13773;48.868;10.730;2023-03-23T13:24:18;4.20;;;1.87;;
25982;SDS011;13773;48.868;10.730;2023-03-23T13:26:48;2.37;;;1.50;;
25982;SDS011;13773;48.868;10.730;2023-03-23T13:29:17;1.90;;;1.47;;
25982;SDS011;13773;48.868;10.730;2023-03-23T13:31:45;4.40;;;1.77;;
25982;SDS011;13773;48.868;10.730;2023-03-23T13:36:57;2.97;;;1.60;;
25982;SDS011;13773;48.868;10.730;2023-03-23T13:39:30;2.53;;;1.63;;
25982;SDS011;13773;48.868;10.730;2023-03-23T13:49:55;2.37;;;1.57;;
25982;SDS011;13773;48.868;10.730;2023-03-23T14:18:50;2.30;;;1.63;;
25982;SDS011;13773;48.868;10.730;2023-03-23T14:24:10;2.10;;;1.83;;
25982;SDS011;13773;48.868;10.730;2023-03-23T14:26:40;1.73;;;1.57;;
25982;SDS011;13773;48.868;10.730;2023-03-23T14:29:11;3.27;;;1.70;;
25982;SDS011;13773;48.868;10.730;2023-03-23T14:31:38;2.87;;;1.80;;
25982;SDS011;13773;48.868;10.730;2023-03-23T14:34:15;3.47;;;1.80;;
25982;SDS011;13773;48.868;10.730;2023-03-23T14:36:44;2.40;;;1.57;;
25982;SDS011;13773;48.868;10.730;2023-03-23T14:41:51;1.70;;;1.57;;
25982;SDS011;13773;48.868;10.730;2023-03-23T14:45:01;1.83;;;1.60;;
25982;SDS011;13773;48.868;10.730;2023-03-23T14:47:23;2.80;;;1.63;;
25982;SDS011;13773;48.868;10.730;2023-03-23T14:49:56;3.83;;;2.00;;
25982;SDS011;13773;48.868;10.730;2023-03-23T14:52:25;2.23;;;1.67;;
25982;SDS011;13773;48.868;10.730;2023-03-23T14:54:54;6.27;;;2.50;;
25982;SDS011;13773;48.868;10.730;2023-03-23T14:57:32;5.63;;;2.20;;
25982;SDS011;13773;48.868;10.730;2023-03-23T14:59:58;4.33;;;1.97;;
25982;SDS011;13773;48.868;10.730;2023-03-23T15:04:58;4.07;;;1.80;;
25982;SDS011;13773;48.868;10.730;2023-03-23T15:07:29;4.17;;;2.00;;
25982;SDS011;13773;48.868;10.730;2023-03-23T15:09:58;6.20;;;2.10;;
25982;SDS011;13773;48.868;10.730;2023-03-23T15:12:25;3.67;;;2.30;;
25982;SDS011;13773;48.868;10.730;2023-03-23T15:14:57;4.10;;;2.00;;
25982;SDS011;13773;48.868;10.730;2023-03-23T15:17:27;2.40;;;1.77;;
25982;SDS011;13773;48.868;10.730;2023-03-23T15:20:00;3.07;;;1.80;;
25982;SDS011;13773;48.868;10.730;2023-03-23T15:22:47;1.67;;;1.57;;
25982;SDS011;13773;48.868;10.730;2023-03-23T15:25:29;2.83;;;2.20;;
25982;SDS011;13773;48.868;10.730;2023-03-23T15:28:18;4.97;;;2.40;;
25982;SDS011;13773;48.868;10.730;2023-03-23T15:30:47;2.40;;;2.20;;
25982;SDS011;13773;48.868;10.730;2023-03-23T15:33:18;5.00;;;2.57;;
25982;SDS011;13773;48.868;10.730;2023-03-23T15:35:51;3.00;;;2.70;;
25982;SDS011;13773;48.868;10.730;2023-03-23T15:40:58;4.13;;;1.80;;
25982;SDS011;13773;48.868;10.730;2023-03-23T15:43:26;2.93;;;2.10;;
25982;SDS011;13773;48.868;10.730;2023-03-23T15:48:28;1.87;;;1.67;;
25982;SDS011;13773;48.868;10.730;2023-03-23T15:50:55;3.57;;;1.90;;
25982;SDS011;13773;48.868;10.730;2023-03-23T15:55:51;7.60;;;3.03;;
25982;SDS011;13773;48.868;10.730;2023-03-23T15:58:17;5.83;;;2.70;;
25982;SDS011;13773;48.868;10.730;2023-03-23T16:00:42;3.50;;;1.90;;
25982;SDS011;13773;48.868;10.730;2023-03-23T16:03:15;3.20;;;1.97;;
25982;SDS011;13773;48.868;10.730;2023-03-23T16:05:44;5.30;;;2.80;;
25982;SDS011;13773;48.868;10.730;2023-03-23T16:08:10;5.23;;;2.87;;
25982;SDS011;13773;48.868;10.730;2023-03-23T16:10:36;4.00;;;2.83;;
25982;SDS011;13773;48.868;10.730;2023-03-23T16:13:02;3.87;;;2.63;;
25982;SDS011;13773;48.868;10.730;2023-03-23T16:15:29;5.20;;;2.80;;
25982;SDS011;13773;48.868;10.730;2023-03-23T16:17:55;6.47;;;2.50;;
25982;SDS011;13773;48.868;10.730;2023-03-23T16:20:21;3.10;;;2.43;;
25982;SDS011;13773;48.868;10.730;2023-03-23T16:22:48;3.87;;;2.20;;
25982;SDS011;13773;48.868;10.730;2023-03-23T16:25:15;4.33;;;2.17;;
25982;SDS011;13773;48.868;10.730;2023-03-23T16:27:41;4.20;;;2.63;;
25982;SDS011;13773;48.868;10.730;2023-03-23T16:30:17;3.70;;;2.20;;
25982;SDS011;13773;48.868;10.730;2023-03-23T16:32:48;4.40;;;2.67;;
25982;SDS011;13773;48.868;10.730;2023-03-23T16:35:14;5.80;;;4.30;;
25982;SDS011;13773;48.868;10.730;2023-03-23T16:37:44;5.30;;;3.73;;
25982;SDS011;13773;48.868;10.730;2023-03-23T16:40:11;4.40;;;3.10;;
25982;SDS011;13773;48.868;10.730;2023-03-23T16:42:37;3.23;;;2.43;;
25982;SDS011;13773;48.868;10.730;2023-03-23T16:45:03;3.80;;;2.40;;
25982;SDS011;13773;48.868;10.730;2023-03-23T16:47:30;2.93;;;2.50;;
25982;SDS011;13773;48.868;10.730;2023-03-23T16:49:56;4.07;;;2.87;;
25982;SDS011;13773;48.868;10.730;2023-03-23T16:52:22;6.40;;;4.90;;
25982;SDS011;13773;48.868;10.730;2023-03-23T16:54:48;10.40;;;7.17;;
25982;SDS011;13773;48.868;10.730;2023-03-23T16:57:13;5.93;;;4.33;;
25982;SDS011;13773;48.868;10.730;2023-03-23T16:59:40;7.93;;;5.10;;
25982;SDS011;13773;48.868;10.730;2023-03-23T17:02:08;5.53;;;4.77;;
25982;SDS011;13773;48.868;10.730;2023-03-23T17:04:35;4.40;;;3.53;;
25982;SDS011;13773;48.868;10.730;2023-03-23T17:07:01;4.87;;;3.10;;
25982;SDS011;13773;48.868;10.730;2023-03-23T17:09:27;3.43;;;2.50;;
25982;SDS011;13773;48.868;10.730;2023-03-23T17:11:53;4.37;;;2.33;;